Time;durP1;ratioP1;P1;durP2;ratioP2;P2;SDS_P1;SDS_P2;PMS_P1;PMS_P2;Temp;Humidity;BMP_temperature;BMP_pressure;BME280_temperature;BME280_humidity;BME280_pressure;Samples;Min_cycle;Max_cycle;Signal;HPM_P1;HPM_P2
2022/12/14 00:00:45;;;;;;;41.85;19.30;;;-4.40;99.90;;;;;;5093680;28;20058;-77
2022/12/14 00:46:59;;;;;;;43.80;18.88;;;-5.90;99.90;;;;;;5092096;28;20101;-74
2022/12/14 00:49:25;;;;;;;43.50;20.80;;;-4.80;99.90;;;;;;5092567;28;20055;-75
2022/12/14 00:51:50;;;;;;;47.40;20.15;;;-4.90;99.90;;;;;;5093273;28;20044;-73
2022/12/14 00:54:16;;;;;;;41.90;19.10;;;-4.90;99.90;;;;;;5093607;28;20044;-73
2022/12/14 00:56:42;;;;;;;43.83;20.02;;;-4.90;99.90;;;;;;5093203;28;20226;-74
2022/12/14 00:59:07;;;;;;;38.73;18.00;;;-5.60;99.90;;;;;;5096236;28;20036;-73
2022/12/14 01:01:33;;;;;;;39.17;18.42;;;-4.90;99.90;;;;;;5098800;28;20044;-73
2022/12/14 01:04:18;;;;;;;42.87;18.67;;;-5.00;99.90;;;;;;5100371;28;20085;-74
2022/12/14 01:06:45;;;;;;;42.33;18.67;;;-5.00;99.90;;;;;;5100189;28;20052;-73
2022/12/14 01:09:12;;;;;;;39.67;18.83;;;-5.00;99.90;;;;;;5104290;28;20040;-73
2022/12/14 01:11:37;;;;;;;42.15;19.15;;;-5.00;99.90;;;;;;5104076;28;20074;-72
2022/12/14 01:14:04;;;;;;;37.63;17.23;;;-5.10;99.90;;;;;;5095233;28;20080;-75
2022/12/14 01:16:30;;;;;;;39.65;18.40;;;-5.10;99.90;;;;;;5096552;28;20040;-73
2022/12/14 01:18:58;;;;;;;37.83;17.83;;;-5.20;99.90;;;;;;5096504;28;20092;-73
2022/12/14 01:21:24;;;;;;;43.10;19.70;;;-5.20;99.90;;;;;;5095415;28;20036;-75
2022/12/14 01:23:57;;;;;;;38.72;18.42;;;-5.30;99.90;;;;;;5096577;28;20388;-76
2022/12/14 01:26:24;;;;;;;40.80;18.15;;;-5.30;99.90;;;;;;5096484;28;20096;-75
2022/12/14 01:28:52;;;;;;;43.28;19.00;;;-5.40;99.90;;;;;;5095344;28;20036;-76
2022/12/14 01:31:19;;;;;;;41.00;18.02;;;-5.30;99.90;;;;;;5096417;28;20169;-74
2022/12/14 01:33:46;;;;;;;40.88;18.08;;;-5.40;99.90;;;;;;5096213;28;20165;-76
2022/12/14 01:36:15;;;;;;;34.72;18.05;;;-5.40;99.90;;;;;;5096802;28;20063;-74
2022/12/14 01:38:41;;;;;;;41.60;18.10;;;-5.40;99.90;;;;;;5096069;28;20051;-73
2022/12/14 01:41:15;;;;;;;42.53;17.50;;;-5.70;99.90;;;;;;5096292;28;20040;-73
2022/12/14 01:43:56;;;;;;;41.83;19.70;;;-5.50;99.90;;;;;;5095134;28;20086;-74
2022/12/14 01:46:33;;;;;;;43.47;18.80;;;-5.50;99.90;;;;;;5094908;28;20510;-73
2022/12/14 01:49:33;;;;;;;37.72;18.95;;;-5.50;99.90;;;;;;5095607;28;20047;-75
2022/12/14 01:52:14;;;;;;;44.90;19.15;;;-5.50;99.90;;;;;;5050935;28;20074;-74
2022/12/14 01:54:47;;;;;;;38.08;19.30;;;-5.50;99.90;;;;;;5095636;28;20098;-74
2022/12/14 01:57:14;;;;;;;43.08;19.27;;;-5.50;99.90;;;;;;5096284;28;20104;-76
2022/12/14 01:59:42;;;;;;;49.10;20.17;;;-5.50;99.90;;;;;;5095898;28;20040;-74
2022/12/14 02:02:10;;;;;;;37.22;17.88;;;-5.50;99.90;;;;;;5095632;28;20047;-75
2022/12/14 02:04:41;;;;;;;40.67;17.85;;;-5.50;99.90;;;;;;5095838;28;20178;-73
2022/12/14 02:07:08;;;;;;;40.10;18.55;;;-5.70;99.90;;;;;;5095592;28;20058;-74
2022/12/14 02:09:37;;;;;;;41.30;18.63;;;-5.60;99.90;;;;;;5095732;28;20052;-74
2022/12/14 02:12:38;;;;;;;36.15;18.05;;;-5.70;99.90;;;;;;5095624;28;20101;-75
2022/12/14 02:15:05;;;;;;;41.67;18.10;;;-5.70;99.90;;;;;;5081376;28;20067;-76
2022/12/14 02:17:30;;;;;;;36.40;17.83;;;-5.70;99.90;;;;;;5095512;28;20040;-76
2022/12/14 02:19:57;;;;;;;34.75;16.38;;;-5.70;99.90;;;;;;5095521;28;20476;-74
2022/12/14 02:22:40;;;;;;;35.78;16.60;;;-5.70;99.90;;;;;;5095399;28;20080;-73
2022/12/14 02:25:43;;;;;;;33.03;16.30;;;-5.80;99.90;;;;;;5095234;28;20093;-74
2022/12/14 02:28:21;;;;;;;38.50;17.20;;;-5.80;99.90;;;;;;5095080;28;20432;-73
2022/12/14 02:31:28;;;;;;;35.58;16.95;;;-5.90;99.90;;;;;;5095252;28;20055;-74
2022/12/14 02:34:12;;;;;;;39.70;17.23;;;-5.90;99.90;;;;;;5094353;28;20415;-74
2022/12/14 02:36:51;;;;;;;33.72;15.40;;;-5.90;99.90;;;;;;5095642;28;20392;-74
2022/12/14 02:39:42;;;;;;;34.30;16.05;;;-5.90;99.90;;;;;;5095636;28;20051;-73
2022/12/14 02:42:10;;;;;;;35.92;17.10;;;-6.00;99.90;;;;;;5095060;28;20048;-75
2022/12/14 02:44:50;;;;;;;32.15;15.15;;;-5.60;99.90;;;;;;5094888;28;20048;-74
2022/12/14 02:47:25;;;;;;;32.45;16.02;;;-6.10;99.90;;;;;;5095156;28;20044;-73
2022/12/14 02:50:05;;;;;;;34.28;16.70;;;-6.10;99.90;;;;;;5094821;28;20511;-76
2022/12/14 02:52:37;;;;;;;35.88;16.48;;;-6.10;99.90;;;;;;5095050;28;20097;-74
2022/12/14 02:55:05;;;;;;;37.88;16.35;;;-6.20;99.90;;;;;;5094552;28;20557;-74
2022/12/14 02:57:37;;;;;;;39.17;16.92;;;-6.30;99.90;;;;;;5094736;28;20036;-74
2022/12/14 03:00:04;;;;;;;34.13;16.23;;;-6.60;99.90;;;;;;5095160;28;20040;-75
2022/12/14 03:02:34;;;;;;;31.70;16.25;;;-6.50;99.90;;;;;;5094622;28;20044;-74
2022/12/14 03:05:01;;;;;;;36.55;16.55;;;-6.50;99.90;;;;;;5094660;28;20476;-73
2022/12/14 03:07:30;;;;;;;29.63;15.60;;;-6.50;99.90;;;;;;5094335;28;20075;-74
2022/12/14 03:10:03;;;;;;;37.92;16.80;;;-6.50;99.90;;;;;;5094377;28;20424;-74
2022/12/14 03:12:28;;;;;;;37.15;15.43;;;-7.00;99.90;;;;;;5093194;28;20059;-74
2022/12/14 03:14:56;;;;;;;39.17;16.93;;;-6.60;99.90;;;;;;5094275;28;20048;-76
2022/12/14 03:17:28;;;;;;;36.75;17.10;;;-6.60;99.90;;;;;;5094295;28;20161;-74
2022/12/14 03:20:08;;;;;;;39.30;16.20;;;-6.70;99.90;;;;;;5094078;28;20051;-74
2022/12/14 03:22:41;;;;;;;39.78;17.25;;;-6.50;99.90;;;;;;5094580;28;20079;-74
2022/12/14 03:25:47;;;;;;;40.97;17.95;;;-6.50;99.90;;;;;;5094144;28;20456;-73
2022/12/14 03:28:25;;;;;;;39.78;16.92;;;-6.50;99.90;;;;;;5075997;28;20088;-73
2022/12/14 03:31:09;;;;;;;35.38;15.88;;;-6.50;99.90;;;;;;5094181;28;20123;-73
2022/12/14 03:33:36;;;;;;;38.13;16.52;;;-6.50;99.90;;;;;;5094052;28;20131;-74
2022/12/14 03:36:04;;;;;;;;;;;-6.50;99.90;;;;;;5094522;28;20422;-75
2022/12/14 03:38:39;;;;;;;;;;;-6.50;99.90;;;;;;5094251;28;19927;-74
2022/12/14 03:41:11;;;;;;;39.15;18.08;;;-6.50;99.90;;;;;;5093979;28;20387;-73
2022/12/14 03:43:47;;;;;;;36.97;17.20;;;-6.50;99.90;;;;;;5093686;28;20052;-73
2022/12/14 03:46:40;;;;;;;34.50;16.50;;;-6.50;99.90;;;;;;5093906;28;20048;-74
2022/12/14 03:49:42;;;;;;;38.80;18.65;;;-6.50;99.90;;;;;;5093405;28;20048;-75
2022/12/14 03:52:17;;;;;;;38.75;17.55;;;-6.60;99.90;;;;;;5062453;28;20048;-75
2022/12/14 03:55:09;;;;;;;37.03;17.02;;;-6.60;99.90;;;;;;5093825;28;20044;-74
2022/12/14 03:57:47;;;;;;;38.40;16.35;;;-6.60;99.90;;;;;;5093723;28;20127;-73
2022/12/14 04:00:18;;;;;;;36.15;16.63;;;-6.60;99.90;;;;;;5093715;28;20086;-75
2022/12/14 04:02:57;;;;;;;43.88;17.33;;;-6.70;99.90;;;;;;5094118;28;20055;-73
2022/12/14 04:05:29;;;;;;;41.10;16.05;;;-6.70;99.90;;;;;;5093683;28;20059;-75
2022/12/14 04:08:11;;;;;;;38.03;16.80;;;-6.80;99.90;;;;;;5093610;28;20505;-73
2022/12/14 04:19:18;;;;;;;43.20;17.48;;;-7.10;99.90;;;;;;5093656;28;20044;-73
2022/12/14 04:21:52;;;;;;;38.13;16.60;;;-6.90;99.90;;;;;;5093358;28;20483;-74
2022/12/14 04:27:29;;;;;;;35.33;16.48;;;-6.90;99.90;;;;;;5093608;28;20048;-74
2022/12/14 04:29:58;;;;;;;35.30;16.30;;;-7.00;99.90;;;;;;5093861;28;20126;-76
2022/12/14 04:32:45;;;;;;;37.38;15.25;;;-7.30;99.90;;;;;;5093404;28;20047;-76
2022/12/14 04:35:22;;;;;;;35.72;15.88;;;-7.00;99.90;;;;;;5092278;28;20087;-75
2022/12/14 04:38:02;;;;;;;36.10;16.48;;;-7.00;99.90;;;;;;5093389;28;20495;-76
2022/12/14 04:41:08;;;;;;;41.67;17.38;;;-7.00;99.90;;;;;;5093576;28;20442;-74
2022/12/14 04:43:40;;;;;;;37.22;16.05;;;-7.00;99.90;;;;;;5011030;28;20054;-73
2022/12/14 04:46:12;;;;;;;35.97;15.55;;;-7.00;99.90;;;;;;5011304;28;20081;-75
2022/12/14 04:48:54;;;;;;;37.40;15.45;;;-7.00;99.90;;;;;;5057548;28;20063;-74
2022/12/14 04:51:46;;;;;;;38.47;15.55;;;-7.00;99.90;;;;;;5097264;28;20044;-76
2022/12/14 04:54:22;;;;;;;38.22;16.95;;;-7.10;99.90;;;;;;5065548;28;20408;-74
2022/12/14 04:56:59;;;;;;;38.85;16.83;;;-7.20;99.90;;;;;;5097198;28;20055;-76
2022/12/14 04:59:25;;;;;;;32.88;15.40;;;-7.10;99.90;;;;;;5097130;28;20036;-76
2022/12/14 05:02:05;;;;;;;33.83;15.03;;;-7.10;99.90;;;;;;5096971;28;20044;-77
2022/12/14 05:05:15;;;;;;;28.55;15.43;;;-7.10;99.90;;;;;;5097119;28;20101;-74
2022/12/14 05:08:01;;;;;;;36.20;15.30;;;-7.10;99.90;;;;;;5096878;28;20040;-75
2022/12/14 05:10:55;;;;;;;40.35;17.77;;;-7.20;99.90;;;;;;5096842;28;20369;-73
2022/12/14 05:13:49;;;;;;;34.83;15.52;;;-7.10;99.90;;;;;;5096843;28;20072;-74
2022/12/14 05:16:21;;;;;;;34.60;16.40;;;-7.10;99.90;;;;;;5092551;28;20055;-76
2022/12/14 05:18:47;;;;;;;37.42;16.30;;;-7.10;99.90;;;;;;5096946;28;20063;-75
2022/12/14 05:21:45;;;;;;;30.08;14.75;;;-7.20;99.90;;;;;;5096676;28;20044;-77
2022/12/14 05:24:00;;;;;;;36.90;16.15;;;-7.20;99.90;;;;;;5096407;28;20484;-76
2022/12/14 05:26:26;;;;;;;30.40;15.40;;;-7.10;99.90;;;;;;5096569;28;20377;-76
2022/12/14 05:28:52;;;;;;;30.00;14.63;;;;;;;;;;5096812;28;20047;-74
2022/12/14 05:31:18;;;;;;;40.97;16.27;;;-7.20;99.90;;;;;;5096514;28;20129;-73
2022/12/14 05:33:44;;;;;;;38.60;15.50;;;-7.40;99.90;;;;;;5096528;28;20494;-76
2022/12/14 05:36:10;;;;;;;38.97;14.20;;;-7.20;99.90;;;;;;5096020;28;20411;-77
2022/12/14 05:38:35;;;;;;;31.03;13.90;;;-7.30;99.90;;;;;;5096520;28;20097;-76
2022/12/14 05:41:01;;;;;;;29.67;14.47;;;-7.30;99.90;;;;;;5096664;28;20089;-76
2022/12/14 05:43:27;;;;;;;32.93;15.40;;;-7.30;99.90;;;;;;5095360;28;20546;-73
2022/12/14 05:46:03;;;;;;;33.53;13.70;;;-7.30;99.90;;;;;;5096369;28;20074;-76
2022/12/14 05:48:30;;;;;;;39.67;14.27;;;-7.30;99.90;;;;;;5096054;28;20456;-74
2022/12/14 05:51:06;;;;;;;;;;;-7.50;99.90;;;;;;5096484;28;20085;-75
2022/12/14 05:53:32;;;;;;;33.15;13.20;;;-7.30;99.90;;;;;;5096200;28;19927;-74
2022/12/14 05:55:57;;;;;;;32.30;13.57;;;-7.30;99.90;;;;;;5096138;28;20040;-74
2022/12/14 05:58:23;;;;;;;31.37;14.23;;;-7.40;99.90;;;;;;5096445;28;20097;-75
2022/12/14 06:00:49;;;;;;;31.40;14.43;;;-7.40;99.90;;;;;;5096074;28;20051;-73
2022/12/14 06:03:15;;;;;;;30.30;13.50;;;-7.50;99.90;;;;;;5096129;28;20044;-75
2022/12/14 06:05:41;;;;;;;27.17;13.93;;;-7.50;99.90;;;;;;5096042;28;20442;-78
2022/12/14 06:08:06;;;;;;;31.87;13.40;;;-7.80;99.90;;;;;;5096005;28;20472;-75
2022/12/14 06:10:32;;;;;;;29.57;14.47;;;-7.50;99.90;;;;;;5095833;28;20460;-73
2022/12/14 06:12:57;;;;;;;33.93;13.57;;;-7.60;99.90;;;;;;5096122;28;20495;-73
2022/12/14 06:15:23;;;;;;;33.67;13.43;;;-7.50;99.90;;;;;;5095706;28;20050;-77
2022/12/14 06:17:49;;;;;;;28.17;14.73;;;-7.50;99.90;;;;;;5095502;28;20047;-74
2022/12/14 06:20:15;;;;;;;33.57;14.40;;;-7.50;99.90;;;;;;5095561;28;20055;-79
2022/12/14 06:22:41;;;;;;;28.92;12.20;;;-7.60;99.90;;;;;;5094320;28;20040;-77
2022/12/14 06:25:07;;;;;;;25.57;12.90;;;-7.60;99.90;;;;;;5095785;28;20048;-75
2022/12/14 06:27:32;;;;;;;37.33;12.98;;;-7.60;99.90;;;;;;5095564;28;20048;-76
2022/12/14 06:29:58;;;;;;;28.40;13.90;;;-7.70;99.90;;;;;;5095337;28;20047;-74
2022/12/14 06:32:24;;;;;;;30.03;13.27;;;-7.80;99.90;;;;;;5095292;28;20475;-74
2022/12/14 06:34:50;;;;;;;31.80;14.15;;;-7.70;99.90;;;;;;5095191;28;20094;-70
2022/12/14 06:37:16;;;;;;;30.33;13.30;;;-7.80;99.90;;;;;;5094031;28;20044;-70
2022/12/14 06:39:41;;;;;;;33.17;13.40;;;-7.80;99.90;;;;;;5095079;28;20052;-78
2022/12/14 06:42:07;;;;;;;26.53;12.60;;;-7.80;99.90;;;;;;5095082;28;20044;-74
2022/12/14 06:44:33;;;;;;;26.93;13.23;;;-7.80;99.90;;;;;;5095155;28;20047;-77
2022/12/14 06:46:59;;;;;;;27.73;13.20;;;-7.80;99.90;;;;;;5094285;28;20526;-73
2022/12/14 06:49:24;;;;;;;26.10;12.60;;;-7.70;99.90;;;;;;5094686;28;20115;-74
2022/12/14 06:51:50;;;;;;;26.73;13.70;;;-7.70;99.90;;;;;;5094864;28;20048;-71
2022/12/14 06:54:17;;;;;;;31.87;13.90;;;-7.70;99.90;;;;;;5094963;28;20047;-76
2022/12/14 06:56:44;;;;;;;31.02;14.02;;;-7.90;99.90;;;;;;5094878;28;20104;-78
2022/12/14 06:59:12;;;;;;;30.90;14.32;;;-7.70;99.90;;;;;;5095063;28;20151;-79
2022/12/14 07:01:38;;;;;;;24.58;13.27;;;-7.80;99.90;;;;;;5094924;28;20040;-76
2022/12/14 07:04:04;;;;;;;23.17;11.37;;;-7.90;99.90;;;;;;5094319;28;20404;-71
2022/12/14 07:06:38;;;;;;;32.28;14.27;;;-7.70;99.90;;;;;;5094634;28;20282;-74
2022/12/14 07:09:06;;;;;;;30.52;13.60;;;-7.90;99.90;;;;;;5094905;28;20066;-72
2022/12/14 07:11:32;;;;;;;29.55;14.30;;;-7.80;99.90;;;;;;5094214;28;20368;-70
2022/12/14 07:14:04;;;;;;;25.60;13.53;;;-7.70;99.90;;;;;;5093877;28;20118;-73
2022/12/14 07:16:30;;;;;;;27.05;14.07;;;-7.70;99.90;;;;;;5094414;28;20480;-73
2022/12/14 07:18:56;;;;;;;31.30;12.90;;;-8.10;99.90;;;;;;5094726;28;20383;-73
2022/12/14 07:21:23;;;;;;;28.73;12.97;;;-7.90;99.90;;;;;;5094328;28;20436;-72
2022/12/14 07:23:51;;;;;;;33.50;13.95;;;-7.80;99.90;;;;;;5094300;28;20603;-73
2022/12/14 07:26:22;;;;;;;26.40;12.30;;;-8.00;99.90;;;;;;5094175;28;20044;-73
2022/12/14 07:28:48;;;;;;;31.58;14.27;;;-7.80;99.90;;;;;;5094137;28;20047;-73
2022/12/14 07:31:19;;;;;;;27.95;12.52;;;-8.10;99.90;;;;;;5093776;28;20230;-74
2022/12/14 07:33:44;;;;;;;30.15;13.35;;;-7.90;99.90;;;;;;5094319;28;20040;-74
2022/12/14 07:36:16;;;;;;;33.27;13.03;;;-7.90;99.90;;;;;;5093965;28;20065;-74
2022/12/14 07:38:44;;;;;;;30.05;12.38;;;-7.90;99.90;;;;;;5094163;28;20380;-74
2022/12/14 07:41:12;;;;;;;27.65;13.27;;;-7.90;99.90;;;;;;5093444;28;20051;-74
2022/12/14 07:43:38;;;;;;;32.42;12.63;;;-7.80;99.90;;;;;;5091447;28;20040;-74
2022/12/14 07:46:07;;;;;;;31.55;13.60;;;-7.80;99.90;;;;;;5093806;28;20044;-74
2022/12/14 07:48:33;;;;;;;28.13;12.18;;;-7.90;99.90;;;;;;5093301;28;20094;-74
2022/12/14 07:51:08;;;;;;;26.88;13.35;;;-7.90;99.90;;;;;;5093832;28;20399;-73
2022/12/14 07:53:34;;;;;;;25.02;12.02;;;;;;;;;;5093430;28;20156;-74
2022/12/14 07:56:05;;;;;;;31.52;12.65;;;-7.90;99.90;;;;;;5093732;28;20388;-74
2022/12/14 07:58:33;;;;;;;29.20;12.80;;;-7.80;99.90;;;;;;5093661;28;20048;-73
2022/12/14 08:01:13;;;;;;;28.48;12.88;;;-7.80;99.90;;;;;;5093603;28;20051;-71
2022/12/14 08:03:45;;;;;;;29.05;13.02;;;-7.90;99.90;;;;;;5093624;28;20048;-75
2022/12/14 08:06:13;;;;;;;30.10;13.80;;;-8.00;99.90;;;;;;5091958;28;20072;-74
2022/12/14 08:08:39;;;;;;;27.35;12.40;;;-8.00;99.90;;;;;;5093106;28;20119;-74
2022/12/14 08:11:06;;;;;;;26.02;13.18;;;-7.90;99.90;;;;;;5093188;28;20047;-73
2022/12/14 08:13:32;;;;;;;28.25;12.13;;;-8.10;99.90;;;;;;5093507;28;20055;-74
2022/12/14 08:16:05;;;;;;;29.40;13.50;;;-7.80;99.90;;;;;;5093452;28;20076;-73
2022/12/14 08:18:32;;;;;;;25.15;11.55;;;-7.80;99.90;;;;;;5093274;28;20429;-76
2022/12/14 08:20:58;;;;;;;26.40;12.75;;;-7.90;99.90;;;;;;5093106;28;20055;-74
2022/12/14 08:23:24;;;;;;;26.13;12.15;;;-7.90;99.90;;;;;;5092925;28;20051;-73
2022/12/14 08:25:53;;;;;;;24.60;11.70;;;-7.60;99.90;;;;;;5096627;28;20492;-75
2022/12/14 08:28:19;;;;;;;30.58;13.68;;;-7.80;99.90;;;;;;5096098;28;20051;-73
2022/12/14 08:30:45;;;;;;;22.80;11.30;;;-7.80;99.90;;;;;;5097299;28;20114;-76
2022/12/14 08:33:10;;;;;;;23.13;11.77;;;-7.80;99.90;;;;;;5097476;28;20044;-74
2022/12/14 08:35:36;;;;;;;25.43;12.77;;;-7.80;99.90;;;;;;5097300;28;20203;-74
2022/12/14 08:38:02;;;;;;;38.70;13.57;;;-7.60;99.90;;;;;;5097127;28;20048;-76
2022/12/14 08:40:28;;;;;;;24.33;11.87;;;-7.60;99.90;;;;;;5097046;28;20044;-74
2022/12/14 08:42:53;;;;;;;25.85;11.65;;;-7.50;99.90;;;;;;5097192;28;20342;-73
2022/12/14 08:45:19;;;;;;;29.93;12.80;;;-7.40;99.90;;;;;;5097157;28;20048;-74
2022/12/14 08:47:48;;;;;;;27.17;12.60;;;-7.40;99.90;;;;;;5096809;28;20051;-74
2022/12/14 08:50:14;;;;;;;33.80;12.40;;;-6.70;99.90;;;;;;5097120;28;20044;-75
2022/12/14 08:52:40;;;;;;;28.80;14.07;;;-7.20;99.90;;;;;;5096646;28;20047;-75
2022/12/14 08:55:06;;;;;;;25.37;12.77;;;-6.90;99.90;;;;;;5096938;28;20040;-74
2022/12/14 08:57:32;;;;;;;25.88;12.77;;;-7.00;99.90;;;;;;5097000;28;20055;-75
2022/12/14 08:59:57;;;;;;;26.97;12.57;;;-6.90;99.90;;;;;;5096891;28;20040;-74
2022/12/14 09:02:23;;;;;;;30.73;13.27;;;-6.80;99.90;;;;;;5096860;28;20040;-74
2022/12/14 09:04:49;;;;;;;28.80;13.80;;;-6.80;99.90;;;;;;5096822;28;20093;-74
2022/12/14 09:07:14;;;;;;;25.80;11.33;;;-6.70;99.90;;;;;;5096374;28;20067;-74
2022/12/14 09:09:41;;;;;;;27.50;13.67;;;-6.30;99.90;;;;;;5096462;28;20044;-74
2022/12/14 09:12:06;;;;;;;31.17;12.93;;;-6.40;99.90;;;;;;5096690;28;20105;-72
2022/12/14 09:14:33;;;;;;;25.63;13.03;;;-6.40;99.90;;;;;;5096607;28;20476;-76
2022/12/14 09:16:59;;;;;;;23.77;11.20;;;-6.50;99.90;;;;;;5096587;28;20048;-75
2022/12/14 09:19:25;;;;;;;31.75;13.18;;;-6.30;99.90;;;;;;5096531;28;20044;-73
2022/12/14 09:21:51;;;;;;;23.17;12.87;;;-6.30;99.90;;;;;;5094860;28;20051;-74
2022/12/14 09:24:17;;;;;;;25.13;12.77;;;-6.60;99.90;;;;;;5096259;28;20095;-74
2022/12/14 09:26:43;;;;;;;29.67;13.02;;;-6.30;99.90;;;;;;5096405;28;20514;-74
2022/12/14 09:29:13;;;;;;;22.20;11.65;;;-6.00;99.90;;;;;;5096229;28;20050;-74
2022/12/14 09:31:39;;;;;;;26.13;12.20;;;-6.00;99.90;;;;;;5096203;28;20039;-74
2022/12/14 09:34:05;;;;;;;26.50;13.10;;;-6.10;99.90;;;;;;5096297;28;20044;-74
2022/12/14 09:36:32;;;;;;;39.33;12.73;;;-6.20;99.90;;;;;;5095298;28;20047;-74
2022/12/14 09:38:58;;;;;;;24.08;13.60;;;-5.80;99.90;;;;;;5096002;28;20122;-74
2022/12/14 09:41:33;;;;;;;25.67;13.50;;;-5.70;99.90;;;;;;5096102;28;20044;-74
2022/12/14 09:44:23;;;;;;;25.80;12.27;;;-5.60;99.90;;;;;;5095993;28;20054;-73
2022/12/14 09:47:06;;;;;;;29.67;13.77;;;-5.60;99.90;;;;;;5088445;28;20083;-74
2022/12/14 09:49:34;;;;;;;31.88;14.55;;;-5.50;99.90;;;;;;5091431;28;20047;-68
2022/12/14 09:52:04;;;;;;;25.23;13.27;;;-5.40;99.90;;;;;;5096042;28;20058;-74
2022/12/14 09:54:36;;;;;;;29.05;13.20;;;-5.40;99.90;;;;;;5096225;28;20044;-74
2022/12/14 09:57:28;;;;;;;27.92;13.68;;;-5.30;99.90;;;;;;5095858;28;20395;-74
2022/12/14 09:59:55;;;;;;;32.00;15.48;;;-5.20;99.90;;;;;;5095821;28;20044;-75
2022/12/14 10:02:39;;;;;;;30.20;14.93;;;-5.10;99.90;;;;;;5095586;28;20073;-74
2022/12/14 10:05:23;;;;;;;32.17;15.30;;;-3.60;99.90;;;;;;5095651;28;20040;-74
2022/12/14 10:08:24;;;;;;;30.20;14.55;;;-5.00;99.90;;;;;;5095154;28;20090;-75
2022/12/14 10:11:28;;;;;;;33.45;15.63;;;-4.90;99.90;;;;;;5095582;28;20093;-76
2022/12/14 10:14:24;;;;;;;30.95;15.02;;;-4.80;99.90;;;;;;5077552;28;20131;-79
2022/12/14 10:17:10;;;;;;;38.83;16.20;;;-4.70;99.90;;;;;;5092924;28;20101;-76
2022/12/14 10:20:07;;;;;;;30.35;15.18;;;-4.60;99.90;;;;;;5094412;28;20090;-76
2022/12/14 10:22:36;;;;;;;29.58;13.68;;;-4.00;99.90;;;;;;5066109;28;20129;-75
2022/12/14 10:25:09;;;;;;;32.35;15.35;;;-4.40;99.90;;;;;;5094793;28;20093;-75
2022/12/14 10:27:36;;;;;;;31.13;13.88;;;-4.40;99.90;;;;;;5094608;28;20481;-76
2022/12/14 10:30:10;;;;;;;29.92;14.30;;;-4.30;99.90;;;;;;5094488;28;20079;-76
2022/12/14 10:32:43;;;;;;;36.80;14.23;;;-4.20;99.90;;;;;;5093931;28;20040;-79
2022/12/14 10:35:22;;;;;;;30.48;14.27;;;-4.20;99.90;;;;;;5094227;28;20403;-76
2022/12/14 10:37:58;;;;;;;32.72;14.27;;;-4.00;99.90;;;;;;5094902;28;20044;-77
2022/12/14 10:40:32;;;;;;;30.35;14.90;;;-3.80;99.90;;;;;;5092973;28;20058;-76
2022/12/14 10:43:15;;;;;;;30.50;14.52;;;-3.90;99.90;;;;;;5092804;28;20093;-78
2022/12/14 10:46:10;;;;;;;28.25;14.18;;;-3.90;99.90;;;;;;5093682;28;20062;-78
2022/12/14 10:49:16;;;;;;;31.13;14.27;;;-3.80;99.90;;;;;;5092134;28;20074;-74
2022/12/14 10:51:48;;;;;;;27.25;13.50;;;-3.70;99.90;;;;;;5094166;28;20063;-78
2022/12/14 10:54:34;;;;;;;27.73;13.27;;;-3.70;99.90;;;;;;5094328;28;20126;-78
2022/12/14 10:56:59;;;;;;;22.30;12.57;;;-3.60;99.90;;;;;;5094162;28;20048;-77
2022/12/14 10:59:29;;;;;;;23.05;12.98;;;-3.50;99.90;;;;;;5094119;28;20086;-78
2022/12/14 11:02:08;;;;;;;26.90;13.40;;;-3.50;99.90;;;;;;5093853;28;20048;-74
2022/12/14 11:04:51;;;;;;;28.13;13.63;;;-3.40;99.90;;;;;;5093655;28;20048;-78
2022/12/14 11:07:20;;;;;;;31.45;13.60;;;-3.30;99.90;;;;;;5095856;28;20491;-77
2022/12/14 11:09:45;;;;;;;28.83;13.55;;;-3.30;99.90;;;;;;5093738;28;20092;-77
2022/12/14 11:12:17;;;;;;;28.05;13.18;;;-3.20;99.90;;;;;;5093817;28;20134;-74
2022/12/14 11:14:58;;;;;;;23.15;11.98;;;-3.10;99.90;;;;;;5093479;28;20384;-75
2022/12/14 11:17:40;;;;;;;28.42;13.27;;;-3.10;99.90;;;;;;5093743;28;20051;-75
2022/12/14 11:20:16;;;;;;;23.17;12.07;;;-3.00;99.90;;;;;;5099875;28;20086;-80
2022/12/14 11:22:45;;;;;;;23.52;12.20;;;-2.90;99.90;;;;;;5093585;28;20040;-75
2022/12/14 11:25:44;;;;;;;26.35;12.43;;;-2.00;99.90;;;;;;5093436;28;20048;-77
2022/12/14 11:28:38;;;;;;;27.52;12.25;;;-2.80;99.90;;;;;;5093328;28;20135;-77
2022/12/14 11:31:11;;;;;;;25.73;12.35;;;-2.70;99.90;;;;;;5093407;28;20491;-78
2022/12/14 11:33:38;;;;;;;23.27;12.15;;;-2.60;99.90;;;;;;5093078;28;20044;-73
2022/12/14 11:36:08;;;;;;;21.35;10.82;;;-2.60;99.90;;;;;;5094375;28;20044;-80
2022/12/14 11:38:35;;;;;;;22.70;11.30;;;-2.50;99.90;;;;;;5094656;28;20490;-78
2022/12/14 11:41:02;;;;;;;23.48;12.15;;;-2.40;99.90;;;;;;5093614;28;20048;-77
2022/12/14 11:43:37;;;;;;;22.60;11.48;;;-2.40;99.90;;;;;;5095122;28;20436;-78
2022/12/14 11:46:04;;;;;;;25.27;11.50;;;-2.30;99.90;;;;;;5092141;28;20036;-73
2022/12/14 11:48:30;;;;;;;23.33;12.25;;;-2.30;99.90;;;;;;5093048;28;20062;-71
2022/12/14 11:51:11;;;;;;;26.10;12.27;;;-2.30;99.90;;;;;;5093413;28;20044;-72
2022/12/14 11:53:37;;;;;;;24.67;12.18;;;-2.30;99.90;;;;;;5093236;28;20082;-72
2022/12/14 11:56:06;;;;;;;23.30;12.02;;;-2.20;99.90;;;;;;5093365;28;20080;-72
2022/12/14 11:58:38;;;;;;;23.90;12.30;;;-2.20;99.90;;;;;;5092950;28;20051;-77
2022/12/14 12:01:12;;;;;;;23.65;11.60;;;-1.80;99.90;;;;;;5092469;28;20044;-74
2022/12/14 12:03:43;;;;;;;24.27;12.23;;;-2.10;99.90;;;;;;5092815;28;20051;-74
2022/12/14 12:06:13;;;;;;;23.17;11.77;;;-2.10;99.90;;;;;;5093094;28;20044;-78
2022/12/14 12:08:40;;;;;;;24.45;11.82;;;-2.10;99.90;;;;;;5093095;28;20392;-75
2022/12/14 12:11:20;;;;;;;22.27;11.75;;;-2.00;99.90;;;;;;5093037;28;20044;-76
2022/12/14 12:13:51;;;;;;;24.60;12.25;;;-1.50;99.90;;;;;;5093171;28;20508;-77
2022/12/14 12:16:25;;;;;;;23.35;11.73;;;-1.90;99.90;;;;;;5092783;28;20484;-75
2022/12/14 12:19:15;;;;;;;23.17;11.32;;;-1.90;99.90;;;;;;5092476;28;20432;-76
2022/12/14 12:21:43;;;;;;;23.40;12.68;;;-1.90;99.90;;;;;;5092099;28;20407;-75
2022/12/14 12:24:23;;;;;;;21.50;12.52;;;-1.90;99.90;;;;;;5092783;28;20044;-76
2022/12/14 12:27:10;;;;;;;27.02;12.07;;;-1.90;99.90;;;;;;5091269;28;20411;-75
2022/12/14 12:29:54;;;;;;;22.85;11.55;;;-1.80;99.90;;;;;;5092538;28;20127;-76
2022/12/14 12:32:26;;;;;;;21.50;11.63;;;-1.70;99.90;;;;;;5092132;28;20044;-76
2022/12/14 12:35:01;;;;;;;23.38;11.45;;;-0.60;99.90;;;;;;5091866;28;20449;-77
2022/12/14 12:37:35;;;;;;;27.65;12.85;;;-1.70;99.90;;;;;;5092922;28;20130;-77
2022/12/14 12:40:17;;;;;;;26.25;12.30;;;-1.70;99.90;;;;;;5092271;28;20093;-76
2022/12/14 12:42:50;;;;;;;25.63;12.38;;;-1.60;99.90;;;;;;5091828;28;20055;-75
2022/12/14 12:45:38;;;;;;;23.33;12.10;;;-1.60;99.90;;;;;;5092049;28;20508;-76
2022/12/14 12:48:12;;;;;;;23.00;11.65;;;-1.60;99.90;;;;;;5092569;28;20056;-77
2022/12/14 12:50:55;;;;;;;23.45;12.35;;;-1.50;99.90;;;;;;5092841;28;20055;-76
2022/12/14 12:53:38;;;;;;;26.65;11.73;;;-1.50;99.90;;;;;;5091200;28;20052;-76
2022/12/14 12:56:12;;;;;;;24.05;12.13;;;-1.50;99.90;;;;;;5092537;28;20074;-76
2022/12/14 12:58:39;;;;;;;22.52;11.13;;;-1.40;99.90;;;;;;5092542;28;20047;-76
2022/12/14 13:01:15;;;;;;;22.33;11.27;;;-1.40;99.90;;;;;;5092495;28;20130;-76
2022/12/14 13:03:44;;;;;;;22.58;11.18;;;-1.30;99.90;;;;;;5092095;28;20040;-77
2022/12/14 13:06:26;;;;;;;24.33;13.05;;;-1.40;99.90;;;;;;5092910;28;20041;-76
2022/12/14 13:09:21;;;;;;;24.77;12.75;;;-1.30;99.90;;;;;;5092643;28;20097;-78
2022/12/14 13:11:47;;;;;;;25.05;13.82;;;-1.40;99.90;;;;;;5096064;28;20093;-76
2022/12/14 13:14:37;;;;;;;24.13;13.68;;;-1.40;99.90;;;;;;5096468;28;20044;-77
2022/12/14 13:17:06;;;;;;;26.52;13.88;;;-1.30;99.90;;;;;;5096786;28;20578;-78
2022/12/14 13:19:44;;;;;;;24.38;13.15;;;-1.40;99.90;;;;;;5096264;28;20058;-75
2022/12/14 13:22:16;;;;;;;23.52;13.35;;;-1.40;99.90;;;;;;5096319;28;20080;-76
2022/12/14 13:24:46;;;;;;;24.63;12.65;;;-0.90;99.90;;;;;;5096322;28;20130;-76
2022/12/14 13:27:41;;;;;;;26.92;13.77;;;-1.40;99.90;;;;;;5095993;28;20168;-76
2022/12/14 13:30:56;;;;;;;23.80;13.07;;;-1.40;99.90;;;;;;5095660;28;20036;-79
2022/12/14 13:33:33;;;;;;;21.45;12.10;;;-1.50;99.90;;;;;;5095450;28;20048;-78
2022/12/14 13:36:22;;;;;;;24.67;12.77;;;-1.50;99.90;;;;;;5096233;28;20138;-76
2022/12/14 13:38:54;;;;;;;25.10;13.32;;;-1.50;99.90;;;;;;5095923;28;20055;-77
2022/12/14 13:41:44;;;;;;;20.02;11.90;;;-1.50;99.90;;;;;;5095755;28;20775;-77
2022/12/14 13:44:24;;;;;;;21.98;12.15;;;-1.60;99.90;;;;;;5096071;28;20146;-78
2022/12/14 13:47:04;;;;;;;22.40;12.32;;;-1.60;99.90;;;;;;5094515;28;20548;-78
2022/12/14 13:49:32;;;;;;;22.10;11.25;;;-1.60;99.90;;;;;;5095859;28;20036;-78
2022/12/14 13:51:58;;;;;;;18.35;10.85;;;-1.00;99.90;;;;;;5095995;28;20051;-76
2022/12/14 13:54:29;;;;;;;16.60;10.32;;;-1.70;99.90;;;;;;5095954;28;20093;-77